Погода Сорогана 2 недели

Тверская область, Россия

18 - 31 мая
  • 18мая
    Сегодня
    +8°
    +21°
    Ясно и безоблачно
    ВремяПогодаТемператураВлажностьДавлениеВетер, м/сВероятность осадков
    00:00Ясно и безоблачно+11°C68 %746 мм1.2 м/с2 %
    03:00Ясно и безоблачно+9°C78 %746 мм1.0 м/с2 %
    06:00Ясно и безоблачно+9°C81 %747 мм1.1 м/с2 %
    09:00Ясно и безоблачно+15°C59 %747 мм1.6 м/с2 %
    12:00Ясно и безоблачно+18°C46 %747 мм2.0 м/с2 %
    15:00Ясно и безоблачно+21°C38 %747 мм2.1 м/с2 %
    18:00Ясно и безоблачно+21°C40 %746 мм1.5 м/с2 %
    21:00Ясно и безоблачно+16°C63 %745 мм1.1 м/с2 %
  • 19мая
    Воскресенье
    +11°
    +22°
    Ясно и безоблачно
    ВремяПогодаТемператураВлажностьДавлениеВетер, м/сВероятность осадков
    00:00Ясно и безоблачно+11°C76 %745 мм1.1 м/с2 %
    03:00Ясно и безоблачно+9°C79 %745 мм0.8 м/с2 %
    06:00Ясно и безоблачно+9°C81 %745 мм1.1 м/с2 %
    09:00Ясно и безоблачно+16°C63 %746 мм1.4 м/с2 %
    12:00Ясно и безоблачно+20°C48 %745 мм1.9 м/с2 %
    15:00Ясно и безоблачно+22°C41 %744 мм2.3 м/с2 %
    18:00Небольшая облачность+22°C36 %743 мм1.5 м/с2 %
    21:00Небольшая облачность+17°C63 %742 мм1.5 м/с2 %
  • 20мая
    Понедельник
    +11°
    +22°
    Небольшая облачность
    ВремяПогодаТемператураВлажностьДавлениеВетер, м/сВероятность осадков
    00:00Практически безоблачно+13°C69 %743 мм1.6 м/с2 %
    03:00Практически безоблачно+11°C73 %743 мм1.3 м/с2 %
    06:00Ясно и безоблачно+12°C75 %743 мм1.6 м/с2 %
    09:00Ясно и безоблачно+17°C62 %743 мм1.6 м/с3 %
    12:00Ясно и безоблачно+21°C44 %743 мм2.4 м/с12 %
    15:00Небольшая облачность+21°C42 %743 мм2.3 м/с31 %
    18:00Облачно с прояснениями+19°C59 %742 мм1.4 м/с47 %
    21:00Небольшая облачность+16°C81 %743 мм0.8 м/с33 %
  • 21мая
    Вторник
    +9°
    +22°
    Ясно и безоблачно
    ВремяПогодаТемператураВлажностьДавлениеВетер, м/сВероятность осадков
    00:00Небольшая облачность+13°C91 %743 мм0.7 м/с12 %
    03:00Облачно с прояснениями+11°C98 %744 мм0.6 м/с14 %
    06:00Пасмурно, сплошная облачность+12°C99 %744 мм1.1 м/с18 %
    09:00Практически безоблачно+17°C79 %745 мм1.3 м/с8 %
    12:00Ясно и безоблачно+20°C52 %746 мм2.0 м/с31 %
    15:00Ясно и безоблачно+22°C44 %745 мм2.3 м/с29 %
    18:00Ясно и безоблачно+19°C40 %745 мм1.4 м/с26 %
    21:00Ясно и безоблачно+16°C54 %746 мм1.2 м/с9 %
  • 22мая
    Среда
    +8°
    +22°
    Ясно и безоблачно
    ВремяПогодаТемператураВлажностьДавлениеВетер, м/сВероятность осадков
    00:00Ясно и безоблачно+13°C56 %746 мм1.4 м/с2 %
    03:00Ясно и безоблачно+10°C64 %747 мм1.2 м/с2 %
    06:00Ясно и безоблачно+11°C69 %747 мм1.4 м/с2 %
    09:00Ясно и безоблачно+16°C62 %747 мм1.6 м/с2 %
    12:00Ясно и безоблачно+20°C48 %748 мм2.1 м/с10 %
    15:00Ясно и безоблачно+22°C40 %747 мм2.5 м/с14 %
    18:00Ясно и безоблачно+21°C42 %747 мм1.7 м/с12 %
    21:00Ясно и безоблачно+15°C49 %748 мм1.7 м/с3 %
Мы используем cookies
Соглашаюсь